sensor_id;sensor_type;location;lat;lon;timestamp;P1;durP1;ratioP1;P2;durP2;ratioP2
75465;SDS011;64049;46.290;44.240;2023-05-13T00:00:52;11.68;;;4.90;;
75465;SDS011;64049;46.290;44.240;2023-05-13T00:07:06;9.65;;;4.13;;
75465;SDS011;64049;46.290;44.240;2023-05-13T00:09:32;12.55;;;5.32;;
75465;SDS011;64049;46.290;44.240;2023-05-13T00:11:58;15.00;;;5.53;;
75465;SDS011;64049;46.290;44.240;2023-05-13T00:14:23;10.15;;;4.80;;
75465;SDS011;64049;46.290;44.240;2023-05-13T00:16:49;10.50;;;5.80;;
75465;SDS011;64049;46.290;44.240;2023-05-13T00:19:15;15.63;;;5.30;;
75465;SDS011;64049;46.290;44.240;2023-05-13T00:21:43;13.48;;;4.90;;
75465;SDS011;64049;46.290;44.240;2023-05-13T00:24:09;12.50;;;4.82;;
75465;SDS011;64049;46.290;44.240;2023-05-13T00:26:36;13.32;;;4.95;;
75465;SDS011;64049;46.290;44.240;2023-05-13T00:29:01;11.10;;;4.70;;
75465;SDS011;64049;46.290;44.240;2023-05-13T00:31:28;9.82;;;4.82;;
75465;SDS011;64049;46.290;44.240;2023-05-13T00:33:56;9.73;;;4.82;;
75465;SDS011;64049;46.290;44.240;2023-05-13T00:36:22;9.70;;;4.40;;
75465;SDS011;64049;46.290;44.240;2023-05-13T00:38:48;8.75;;;4.47;;
75465;SDS011;64049;46.290;44.240;2023-05-13T00:41:14;9.80;;;4.55;;
75465;SDS011;64049;46.290;44.240;2023-05-13T00:43:44;10.10;;;5.18;;
75465;SDS011;64049;46.290;44.240;2023-05-13T00:46:10;20.63;;;6.32;;
75465;SDS011;64049;46.290;44.240;2023-05-13T00:48:36;9.77;;;4.43;;
75465;SDS011;64049;46.290;44.240;2023-05-13T00:51:03;12.55;;;5.07;;
75465;SDS011;64049;46.290;44.240;2023-05-13T00:53:29;10.73;;;4.95;;
75465;SDS011;64049;46.290;44.240;2023-05-13T00:55:58;10.68;;;6.00;;
75465;SDS011;64049;46.290;44.240;2023-05-13T00:58:24;11.38;;;5.45;;
75465;SDS011;64049;46.290;44.240;2023-05-13T01:07:13;13.20;;;6.13;;
75465;SDS011;64049;46.290;44.240;2023-05-13T01:19:23;10.93;;;5.75;;
75465;SDS011;64049;46.290;44.240;2023-05-13T01:25:47;12.52;;;5.72;;
75465;SDS011;64049;46.290;44.240;2023-05-13T01:28:15;13.38;;;5.95;;
75465;SDS011;64049;46.290;44.240;2023-05-13T01:30:46;12.00;;;5.93;;
75465;SDS011;64049;46.290;44.240;2023-05-13T01:37:01;12.50;;;5.60;;
75465;SDS011;64049;46.290;44.240;2023-05-13T01:39:28;14.02;;;6.30;;
75465;SDS011;64049;46.290;44.240;2023-05-13T01:45:52;9.65;;;4.57;;
75465;SDS011;64049;46.290;44.240;2023-05-13T01:50:47;22.65;;;6.00;;
75465;SDS011;64049;46.290;44.240;2023-05-13T01:55:43;13.18;;;6.60;;
75465;SDS011;64049;46.290;44.240;2023-05-13T01:58:09;11.82;;;5.32;;
75465;SDS011;64049;46.290;44.240;2023-05-13T02:00:35;16.50;;;5.85;;
75465;SDS011;64049;46.290;44.240;2023-05-13T02:06:07;10.93;;;5.75;;
75465;SDS011;64049;46.290;44.240;2023-05-13T02:08:34;10.60;;;5.47;;
75465;SDS011;64049;46.290;44.240;2023-05-13T02:11:02;13.23;;;6.55;;
75465;SDS011;64049;46.290;44.240;2023-05-13T02:13:30;11.27;;;5.80;;
75465;SDS011;64049;46.290;44.240;2023-05-13T02:15:56;11.75;;;6.10;;
75465;SDS011;64049;46.290;44.240;2023-05-13T02:18:22;13.98;;;7.28;;
75465;SDS011;64049;46.290;44.240;2023-05-13T02:20:49;11.13;;;5.68;;
75465;SDS011;64049;46.290;44.240;2023-05-13T02:23:16;9.05;;;5.20;;
75465;SDS011;64049;46.290;44.240;2023-05-13T02:25:42;15.18;;;5.65;;
75465;SDS011;64049;46.290;44.240;2023-05-13T02:28:08;11.15;;;5.18;;
75465;SDS011;64049;46.290;44.240;2023-05-13T02:30:35;9.65;;;4.78;;
75465;SDS011;64049;46.290;44.240;2023-05-13T02:33:01;12.93;;;5.82;;
75465;SDS011;64049;46.290;44.240;2023-05-13T02:35:27;9.30;;;5.20;;
75465;SDS011;64049;46.290;44.240;2023-05-13T02:37:59;12.90;;;6.07;;
75465;SDS011;64049;46.290;44.240;2023-05-13T02:40:26;10.85;;;5.75;;
75465;SDS011;64049;46.290;44.240;2023-05-13T02:42:53;9.82;;;5.53;;
75465;SDS011;64049;46.290;44.240;2023-05-13T02:45:26;13.48;;;5.65;;
75465;SDS011;64049;46.290;44.240;2023-05-13T02:47:54;10.82;;;5.70;;
75465;SDS011;64049;46.290;44.240;2023-05-13T02:50:22;11.27;;;5.40;;
75465;SDS011;64049;46.290;44.240;2023-05-13T02:55:17;11.88;;;6.53;;
75465;SDS011;64049;46.290;44.240;2023-05-13T02:57:43;12.98;;;5.40;;
75465;SDS011;64049;46.290;44.240;2023-05-13T03:00:09;10.70;;;5.57;;
75465;SDS011;64049;46.290;44.240;2023-05-13T03:02:36;13.10;;;6.20;;
75465;SDS011;64049;46.290;44.240;2023-05-13T03:05:02;11.95;;;6.13;;
75465;SDS011;64049;46.290;44.240;2023-05-13T03:07:29;11.55;;;5.80;;
75465;SDS011;64049;46.290;44.240;2023-05-13T03:09:57;13.65;;;6.15;;
75465;SDS011;64049;46.290;44.240;2023-05-13T03:15:45;11.82;;;5.25;;
75465;SDS011;64049;46.290;44.240;2023-05-13T03:18:11;10.68;;;5.78;;
75465;SDS011;64049;46.290;44.240;2023-05-13T03:20:38;16.65;;;6.25;;
75465;SDS011;64049;46.290;44.240;2023-05-13T03:25:52;13.35;;;5.00;;
75465;SDS011;64049;46.290;44.240;2023-05-13T03:28:18;10.55;;;6.20;;
75465;SDS011;64049;46.290;44.240;2023-05-13T03:30:44;12.68;;;5.78;;
75465;SDS011;64049;46.290;44.240;2023-05-13T03:35:47;12.05;;;5.35;;
75465;SDS011;64049;46.290;44.240;2023-05-13T03:38:15;11.90;;;5.65;;
75465;SDS011;64049;46.290;44.240;2023-05-13T03:40:44;12.15;;;5.72;;
75465;SDS011;64049;46.290;44.240;2023-05-13T03:46:41;12.55;;;5.50;;
75465;SDS011;64049;46.290;44.240;2023-05-13T03:49:08;9.93;;;5.55;;
75465;SDS011;64049;46.290;44.240;2023-05-13T03:51:36;10.93;;;5.25;;
75465;SDS011;64049;46.290;44.240;2023-05-13T03:54:02;12.55;;;4.90;;
75465;SDS011;64049;46.290;44.240;2023-05-13T03:56:28;9.70;;;5.32;;
75465;SDS011;64049;46.290;44.240;2023-05-13T03:58:54;10.90;;;5.35;;
75465;SDS011;64049;46.290;44.240;2023-05-13T04:01:20;9.73;;;5.35;;
75465;SDS011;64049;46.290;44.240;2023-05-13T04:07:34;8.95;;;4.90;;
75465;SDS011;64049;46.290;44.240;2023-05-13T04:10:00;12.02;;;4.72;;
75465;SDS011;64049;46.290;44.240;2023-05-13T04:16:13;9.52;;;4.05;;
75465;SDS011;64049;46.290;44.240;2023-05-13T04:18:40;10.27;;;3.92;;
75465;SDS011;64049;46.290;44.240;2023-05-13T04:21:06;9.65;;;4.38;;
75465;SDS011;64049;46.290;44.240;2023-05-13T04:26:26;9.73;;;5.18;;
75465;SDS011;64049;46.290;44.240;2023-05-13T04:28:52;10.55;;;4.85;;
75465;SDS011;64049;46.290;44.240;2023-05-13T04:31:18;11.30;;;4.78;;
75465;SDS011;64049;46.290;44.240;2023-05-13T04:33:45;9.30;;;5.13;;
75465;SDS011;64049;46.290;44.240;2023-05-13T04:36:12;8.63;;;4.63;;
75465;SDS011;64049;46.290;44.240;2023-05-13T04:38:38;11.73;;;3.95;;
75465;SDS011;64049;46.290;44.240;2023-05-13T04:41:04;7.22;;;3.90;;
75465;SDS011;64049;46.290;44.240;2023-05-13T04:43:37;8.50;;;3.95;;
75465;SDS011;64049;46.290;44.240;2023-05-13T04:46:03;8.88;;;4.82;;
75465;SDS011;64049;46.290;44.240;2023-05-13T04:48:29;8.52;;;4.30;;
75465;SDS011;64049;46.290;44.240;2023-05-13T04:50:56;12.40;;;4.38;;
75465;SDS011;64049;46.290;44.240;2023-05-13T04:53:23;8.25;;;4.38;;
75465;SDS011;64049;46.290;44.240;2023-05-13T04:55:51;8.85;;;4.45;;
75465;SDS011;64049;46.290;44.240;2023-05-13T04:58:25;8.40;;;4.25;;
75465;SDS011;64049;46.290;44.240;2023-05-13T05:00:52;9.73;;;4.10;;
75465;SDS011;64049;46.290;44.240;2023-05-13T05:03:19;13.52;;;5.13;;
75465;SDS011;64049;46.290;44.240;2023-05-13T05:05:46;9.20;;;4.57;;
75465;SDS011;64049;46.290;44.240;2023-05-13T05:08:13;10.00;;;4.22;;
75465;SDS011;64049;46.290;44.240;2023-05-13T05:10:41;8.68;;;4.22;;
75465;SDS011;64049;46.290;44.240;2023-05-13T05:13:08;7.72;;;3.85;;
75465;SDS011;64049;46.290;44.240;2023-05-13T05:15:35;7.95;;;3.72;;
75465;SDS011;64049;46.290;44.240;2023-05-13T05:18:03;9.23;;;4.32;;
75465;SDS011;64049;46.290;44.240;2023-05-13T05:20:31;7.15;;;4.13;;
75465;SDS011;64049;46.290;44.240;2023-05-13T05:23:01;8.40;;;4.30;;
75465;SDS011;64049;46.290;44.240;2023-05-13T05:25:29;7.88;;;3.83;;
75465;SDS011;64049;46.290;44.240;2023-05-13T05:27:55;10.88;;;4.38;;
75465;SDS011;64049;46.290;44.240;2023-05-13T05:30:22;9.32;;;3.53;;
75465;SDS011;64049;46.290;44.240;2023-05-13T05:32:56;9.27;;;4.40;;
75465;SDS011;64049;46.290;44.240;2023-05-13T05:35:23;9.00;;;4.60;;
75465;SDS011;64049;46.290;44.240;2023-05-13T05:37:50;10.02;;;4.50;;
75465;SDS011;64049;46.290;44.240;2023-05-13T05:40:17;9.63;;;3.72;;
75465;SDS011;64049;46.290;44.240;2023-05-13T05:45:12;7.47;;;3.97;;
75465;SDS011;64049;46.290;44.240;2023-05-13T05:47:38;8.43;;;4.60;;
75465;SDS011;64049;46.290;44.240;2023-05-13T05:50:04;8.38;;;3.70;;
75465;SDS011;64049;46.290;44.240;2023-05-13T05:52:31;9.25;;;4.05;;
75465;SDS011;64049;46.290;44.240;2023-05-13T05:54:57;8.15;;;3.80;;
75465;SDS011;64049;46.290;44.240;2023-05-13T05:57:23;8.55;;;4.10;;
75465;SDS011;64049;46.290;44.240;2023-05-13T05:59:49;10.52;;;3.20;;
75465;SDS011;64049;46.290;44.240;2023-05-13T06:02:15;11.55;;;3.67;;
75465;SDS011;64049;46.290;44.240;2023-05-13T06:04:41;8.32;;;3.15;;
75465;SDS011;64049;46.290;44.240;2023-05-13T06:07:07;6.10;;;3.15;;
75465;SDS011;64049;46.290;44.240;2023-05-13T06:09:33;7.93;;;3.10;;
75465;SDS011;64049;46.290;44.240;2023-05-13T06:12:00;6.63;;;3.38;;
75465;SDS011;64049;46.290;44.240;2023-05-13T06:14:26;6.50;;;3.67;;
75465;SDS011;64049;46.290;44.240;2023-05-13T06:16:52;7.25;;;2.78;;
75465;SDS011;64049;46.290;44.240;2023-05-13T06:19:18;5.95;;;2.88;;
75465;SDS011;64049;46.290;44.240;2023-05-13T06:21:44;7.47;;;3.25;;
75465;SDS011;64049;46.290;44.240;2023-05-13T06:24:10;9.18;;;3.88;;
75465;SDS011;64049;46.290;44.240;2023-05-13T06:26:36;7.13;;;3.20;;
75465;SDS011;64049;46.290;44.240;2023-05-13T06:29:02;7.10;;;3.15;;
75465;SDS011;64049;46.290;44.240;2023-05-13T06:31:32;6.75;;;3.15;;
75465;SDS011;64049;46.290;44.240;2023-05-13T06:33:59;6.53;;;3.30;;
75465;SDS011;64049;46.290;44.240;2023-05-13T06:36:25;9.75;;;3.13;;
75465;SDS011;64049;46.290;44.240;2023-05-13T06:38:52;8.73;;;3.80;;
75465;SDS011;64049;46.290;44.240;2023-05-13T06:41:19;12.45;;;3.80;;
75465;SDS011;64049;46.290;44.240;2023-05-13T06:43:47;6.78;;;3.35;;
75465;SDS011;64049;46.290;44.240;2023-05-13T06:46:19;10.10;;;3.55;;
75465;SDS011;64049;46.290;44.240;2023-05-13T06:48:45;7.28;;;3.25;;
75465;SDS011;64049;46.290;44.240;2023-05-13T06:51:11;7.75;;;3.53;;
75465;SDS011;64049;46.290;44.240;2023-05-13T06:53:37;7.57;;;3.30;;
75465;SDS011;64049;46.290;44.240;2023-05-13T06:56:03;6.95;;;3.50;;
75465;SDS011;64049;46.290;44.240;2023-05-13T06:58:29;8.20;;;3.70;;
75465;SDS011;64049;46.290;44.240;2023-05-13T07:00:55;9.75;;;3.17;;
75465;SDS011;64049;46.290;44.240;2023-05-13T07:03:21;7.15;;;3.08;;
75465;SDS011;64049;46.290;44.240;2023-05-13T07:05:47;11.93;;;3.53;;
75465;SDS011;64049;46.290;44.240;2023-05-13T07:08:13;7.40;;;3.45;;
75465;SDS011;64049;46.290;44.240;2023-05-13T07:10:42;6.70;;;3.53;;
75465;SDS011;64049;46.290;44.240;2023-05-13T07:13:08;7.88;;;3.92;;
75465;SDS011;64049;46.290;44.240;2023-05-13T07:15:35;6.32;;;3.15;;
75465;SDS011;64049;46.290;44.240;2023-05-13T07:18:01;8.68;;;3.42;;
75465;SDS011;64049;46.290;44.240;2023-05-13T07:20:27;7.85;;;4.05;;
75465;SDS011;64049;46.290;44.240;2023-05-13T07:22:53;8.52;;;3.08;;
75465;SDS011;64049;46.290;44.240;2023-05-13T07:25:19;8.27;;;3.58;;
75465;SDS011;64049;46.290;44.240;2023-05-13T07:27:45;14.77;;;3.63;;
75465;SDS011;64049;46.290;44.240;2023-05-13T07:30:12;12.30;;;4.10;;
75465;SDS011;64049;46.290;44.240;2023-05-13T07:32:38;10.18;;;3.30;;
75465;SDS011;64049;46.290;44.240;2023-05-13T07:35:04;6.93;;;3.20;;
75465;SDS011;64049;46.290;44.240;2023-05-13T07:37:31;7.28;;;3.10;;
75465;SDS011;64049;46.290;44.240;2023-05-13T07:39:57;7.60;;;3.33;;
75465;SDS011;64049;46.290;44.240;2023-05-13T07:42:23;15.05;;;4.72;;
75465;SDS011;64049;46.290;44.240;2023-05-13T07:44:50;8.30;;;3.65;;
75465;SDS011;64049;46.290;44.240;2023-05-13T07:47:17;8.15;;;3.30;;
75465;SDS011;64049;46.290;44.240;2023-05-13T07:49:43;11.55;;;3.58;;
75465;SDS011;64049;46.290;44.240;2023-05-13T07:52:08;6.75;;;3.20;;
75465;SDS011;64049;46.290;44.240;2023-05-13T07:54:34;9.02;;;3.67;;
75465;SDS011;64049;46.290;44.240;2023-05-13T07:57:00;7.80;;;3.47;;
75465;SDS011;64049;46.290;44.240;2023-05-13T07:59:28;10.18;;;2.83;;
75465;SDS011;64049;46.290;44.240;2023-05-13T08:01:54;7.22;;;3.50;;
75465;SDS011;64049;46.290;44.240;2023-05-13T08:04:21;7.78;;;3.53;;
75465;SDS011;64049;46.290;44.240;2023-05-13T08:06:47;6.90;;;2.92;;
75465;SDS011;64049;46.290;44.240;2023-05-13T08:09:13;8.32;;;4.18;;
75465;SDS011;64049;46.290;44.240;2023-05-13T08:11:39;7.60;;;3.25;;
75465;SDS011;64049;46.290;44.240;2023-05-13T08:14:05;9.13;;;3.13;;
75465;SDS011;64049;46.290;44.240;2023-05-13T08:16:33;6.47;;;3.10;;
75465;SDS011;64049;46.290;44.240;2023-05-13T08:19:00;7.28;;;3.30;;
75465;SDS011;64049;46.290;44.240;2023-05-13T08:21:26;7.15;;;3.72;;
75465;SDS011;64049;46.290;44.240;2023-05-13T08:23:52;7.47;;;3.80;;
75465;SDS011;64049;46.290;44.240;2023-05-13T08:26:18;8.55;;;3.72;;
75465;SDS011;64049;46.290;44.240;2023-05-13T08:28:44;8.07;;;3.70;;
75465;SDS011;64049;46.290;44.240;2023-05-13T08:31:11;10.82;;;3.75;;
75465;SDS011;64049;46.290;44.240;2023-05-13T08:33:37;7.78;;;3.05;;
75465;SDS011;64049;46.290;44.240;2023-05-13T08:36:06;7.15;;;2.92;;
75465;SDS011;64049;46.290;44.240;2023-05-13T08:38:32;11.35;;;3.60;;
75465;SDS011;64049;46.290;44.240;2023-05-13T08:40:59;9.98;;;3.50;;
75465;SDS011;64049;46.290;44.240;2023-05-13T08:43:28;6.05;;;3.15;;
75465;SDS011;64049;46.290;44.240;2023-05-13T08:45:56;9.02;;;3.55;;
75465;SDS011;64049;46.290;44.240;2023-05-13T08:48:28;8.02;;;3.58;;
75465;SDS011;64049;46.290;44.240;2023-05-13T08:50:56;10.07;;;3.40;;
75465;SDS011;64049;46.290;44.240;2023-05-13T08:53:24;8.25;;;3.20;;
75465;SDS011;64049;46.290;44.240;2023-05-13T08:55:50;8.13;;;3.47;;
75465;SDS011;64049;46.290;44.240;2023-05-13T08:58:17;6.15;;;2.90;;
75465;SDS011;64049;46.290;44.240;2023-05-13T09:00:43;7.18;;;3.40;;
75465;SDS011;64049;46.290;44.240;2023-05-13T09:03:10;6.70;;;2.85;;
75465;SDS011;64049;46.290;44.240;2023-05-13T09:05:37;7.22;;;3.08;;
75465;SDS011;64049;46.290;44.240;2023-05-13T09:08:06;7.63;;;3.10;;
75465;SDS011;64049;46.290;44.240;2023-05-13T09:10:36;8.10;;;3.03;;
75465;SDS011;64049;46.290;44.240;2023-05-13T09:13:03;10.52;;;3.60;;
75465;SDS011;64049;46.290;44.240;2023-05-13T09:15:30;8.65;;;4.18;;
75465;SDS011;64049;46.290;44.240;2023-05-13T09:18:03;8.07;;;3.03;;
75465;SDS011;64049;46.290;44.240;2023-05-13T09:20:30;8.15;;;3.63;;
75465;SDS011;64049;46.290;44.240;2023-05-13T09:22:59;8.77;;;4.82;;
75465;SDS011;64049;46.290;44.240;2023-05-13T09:25:37;8.50;;;2.90;;
75465;SDS011;64049;46.290;44.240;2023-05-13T09:28:04;6.32;;;3.53;;
75465;SDS011;64049;46.290;44.240;2023-05-13T09:30:35;7.35;;;3.13;;
75465;SDS011;64049;46.290;44.240;2023-05-13T09:35:47;7.22;;;3.00;;
75465;SDS011;64049;46.290;44.240;2023-05-13T09:38:20;7.05;;;2.97;;
75465;SDS011;64049;46.290;44.240;2023-05-13T09:40:49;5.82;;;3.22;;
75465;SDS011;64049;46.290;44.240;2023-05-13T09:43:23;7.78;;;2.83;;
75465;SDS011;64049;46.290;44.240;2023-05-13T09:45:53;6.40;;;2.92;;
75465;SDS011;64049;46.290;44.240;2023-05-13T09:48:20;6.53;;;3.20;;
75465;SDS011;64049;46.290;44.240;2023-05-13T09:50:51;5.97;;;2.65;;
75465;SDS011;64049;46.290;44.240;2023-05-13T09:53:17;8.68;;;3.15;;
75465;SDS011;64049;46.290;44.240;2023-05-13T09:55:47;5.97;;;2.80;;
75465;SDS011;64049;46.290;44.240;2023-05-13T10:00:40;12.75;;;2.83;;
75465;SDS011;64049;46.290;44.240;2023-05-13T10:03:07;6.95;;;2.75;;
75465;SDS011;64049;46.290;44.240;2023-05-13T10:05:34;7.60;;;2.95;;
75465;SDS011;64049;46.290;44.240;2023-05-13T10:08:00;12.20;;;3.25;;
75465;SDS011;64049;46.290;44.240;2023-05-13T10:10:28;9.00;;;2.97;;
75465;SDS011;64049;46.290;44.240;2023-05-13T10:12:57;9.45;;;2.90;;
75465;SDS011;64049;46.290;44.240;2023-05-13T10:15:28;6.45;;;2.67;;
75465;SDS011;64049;46.290;44.240;2023-05-13T10:17:55;8.32;;;3.50;;
75465;SDS011;64049;46.290;44.240;2023-05-13T10:22:48;6.80;;;2.83;;
75465;SDS011;64049;46.290;44.240;2023-05-13T10:25:15;14.77;;;6.15;;
75465;SDS011;64049;46.290;44.240;2023-05-13T10:27:42;11.20;;;2.97;;
75465;SDS011;64049;46.290;44.240;2023-05-13T10:30:09;7.07;;;3.03;;
75465;SDS011;64049;46.290;44.240;2023-05-13T10:32:36;10.48;;;2.90;;
75465;SDS011;64049;46.290;44.240;2023-05-13T10:35:07;6.68;;;3.00;;
75465;SDS011;64049;46.290;44.240;2023-05-13T10:43:27;7.47;;;2.85;;
75465;SDS011;64049;46.290;44.240;2023-05-13T10:45:58;7.55;;;2.85;;
75465;SDS011;64049;46.290;44.240;2023-05-13T10:48:38;6.68;;;2.88;;
75465;SDS011;64049;46.290;44.240;2023-05-13T10:51:07;10.85;;;3.33;;
75465;SDS011;64049;46.290;44.240;2023-05-13T10:53:47;6.80;;;2.92;;
75465;SDS011;64049;46.290;44.240;2023-05-13T10:56:15;10.10;;;4.47;;
75465;SDS011;64049;46.290;44.240;2023-05-13T10:58:55;7.72;;;3.10;;
75465;SDS011;64049;46.290;44.240;2023-05-13T11:01:35;7.03;;;3.45;;
75465;SDS011;64049;46.290;44.240;2023-05-13T11:04:11;6.75;;;2.65;;
75465;SDS011;64049;46.290;44.240;2023-05-13T11:06:39;7.97;;;2.85;;
75465;SDS011;64049;46.290;44.240;2023-05-13T11:09:07;6.78;;;3.15;;
75465;SDS011;64049;46.290;44.240;2023-05-13T11:11:37;5.13;;;2.47;;
75465;SDS011;64049;46.290;44.240;2023-05-13T11:16:34;7.65;;;3.30;;
75465;SDS011;64049;46.290;44.240;2023-05-13T11:19:02;7.18;;;3.17;;
75465;SDS011;64049;46.290;44.240;2023-05-13T11:21:29;6.05;;;3.03;;
75465;SDS011;64049;46.290;44.240;2023-05-13T11:23:56;7.72;;;3.22;;
75465;SDS011;64049;46.290;44.240;2023-05-13T11:26:23;7.22;;;3.30;;
75465;SDS011;64049;46.290;44.240;2023-05-13T11:28:53;17.48;;;3.85;;
75465;SDS011;64049;46.290;44.240;2023-05-13T11:31:20;7.80;;;2.88;;
75465;SDS011;64049;46.290;44.240;2023-05-13T11:36:34;10.40;;;3.03;;
75465;SDS011;64049;46.290;44.240;2023-05-13T11:39:11;6.53;;;2.75;;
75465;SDS011;64049;46.290;44.240;2023-05-13T11:41:45;8.43;;;2.40;;
75465;SDS011;64049;46.290;44.240;2023-05-13T11:44:13;7.22;;;2.67;;
75465;SDS011;64049;46.290;44.240;2023-05-13T11:52:05;5.10;;;2.90;;
75465;SDS011;64049;46.290;44.240;2023-05-13T11:59:53;7.22;;;2.65;;
75465;SDS011;64049;46.290;44.240;2023-05-13T12:02:40;7.75;;;2.90;;
75465;SDS011;64049;46.290;44.240;2023-05-13T12:05:06;8.43;;;2.90;;
75465;SDS011;64049;46.290;44.240;2023-05-13T12:07:34;8.95;;;2.85;;
75465;SDS011;64049;46.290;44.240;2023-05-13T12:10:02;8.25;;;3.08;;
75465;SDS011;64049;46.290;44.240;2023-05-13T12:12:29;6.72;;;2.97;;
75465;SDS011;64049;46.290;44.240;2023-05-13T12:14:57;7.50;;;3.30;;
75465;SDS011;64049;46.290;44.240;2023-05-13T12:17:25;6.18;;;3.03;;
75465;SDS011;64049;46.290;44.240;2023-05-13T12:22:33;7.38;;;3.22;;
75465;SDS011;64049;46.290;44.240;2023-05-13T12:25:01;6.55;;;2.50;;
75465;SDS011;64049;46.290;44.240;2023-05-13T12:28:17;8.73;;;3.22;;
75465;SDS011;64049;46.290;44.240;2023-05-13T12:30:57;7.07;;;2.85;;
75465;SDS011;64049;46.290;44.240;2023-05-13T12:33:25;9.95;;;2.95;;
75465;SDS011;64049;46.290;44.240;2023-05-13T12:35:53;8.13;;;2.92;;
75465;SDS011;64049;46.290;44.240;2023-05-13T12:38:39;5.95;;;2.67;;
75465;SDS011;64049;46.290;44.240;2023-05-13T12:41:17;8.35;;;3.45;;
75465;SDS011;64049;46.290;44.240;2023-05-13T12:43:43;7.32;;;3.95;;
75465;SDS011;64049;46.290;44.240;2023-05-13T12:46:09;5.85;;;2.80;;
75465;SDS011;64049;46.290;44.240;2023-05-13T12:48:36;6.47;;;2.67;;
75465;SDS011;64049;46.290;44.240;2023-05-13T12:51:02;11.15;;;3.10;;
75465;SDS011;64049;46.290;44.240;2023-05-13T12:53:28;7.65;;;2.88;;
75465;SDS011;64049;46.290;44.240;2023-05-13T12:55:55;5.97;;;2.92;;
75465;SDS011;64049;46.290;44.240;2023-05-13T12:58:21;5.57;;;2.30;;
75465;SDS011;64049;46.290;44.240;2023-05-13T13:00:47;8.30;;;3.90;;
75465;SDS011;64049;46.290;44.240;2023-05-13T13:03:13;9.13;;;3.15;;
75465;SDS011;64049;46.290;44.240;2023-05-13T13:05:39;8.57;;;2.70;;
75465;SDS011;64049;46.290;44.240;2023-05-13T13:08:05;7.68;;;3.08;;
75465;SDS011;64049;46.290;44.240;2023-05-13T13:10:31;6.65;;;2.70;;
75465;SDS011;64049;46.290;44.240;2023-05-13T13:12:56;5.25;;;2.28;;
75465;SDS011;64049;46.290;44.240;2023-05-13T13:15:22;6.60;;;2.90;;
75465;SDS011;64049;46.290;44.240;2023-05-13T13:17:48;5.95;;;2.20;;
75465;SDS011;64049;46.290;44.240;2023-05-13T13:20:14;7.18;;;2.55;;
75465;SDS011;64049;46.290;44.240;2023-05-13T13:22:40;5.80;;;2.53;;
75465;SDS011;64049;46.290;44.240;2023-05-13T13:25:06;8.13;;;2.28;;
75465;SDS011;64049;46.290;44.240;2023-05-13T13:27:32;5.97;;;1.98;;
75465;SDS011;64049;46.290;44.240;2023-05-13T13:29:59;5.60;;;2.58;;
75465;SDS011;64049;46.290;44.240;2023-05-13T13:32:25;7.95;;;2.63;;
75465;SDS011;64049;46.290;44.240;2023-05-13T13:34:51;5.75;;;2.60;;
75465;SDS011;64049;46.290;44.240;2023-05-13T13:37:16;5.75;;;3.30;;
75465;SDS011;64049;46.290;44.240;2023-05-13T13:39:42;5.53;;;2.42;;
75465;SDS011;64049;46.290;44.240;2023-05-13T13:42:08;6.85;;;2.60;;
75465;SDS011;64049;46.290;44.240;2023-05-13T13:44:34;6.75;;;3.58;;
75465;SDS011;64049;46.290;44.240;2023-05-13T13:47:03;11.07;;;6.90;;
75465;SDS011;64049;46.290;44.240;2023-05-13T13:49:29;9.02;;;4.47;;
75465;SDS011;64049;46.290;44.240;2023-05-13T13:51:55;15.20;;;10.80;;
75465;SDS011;64049;46.290;44.240;2023-05-13T13:54:21;7.60;;;3.55;;
75465;SDS011;64049;46.290;44.240;2023-05-13T13:56:47;7.57;;;3.42;;
75465;SDS011;64049;46.290;44.240;2023-05-13T13:59:13;7.65;;;2.78;;
75465;SDS011;64049;46.290;44.240;2023-05-13T14:01:39;5.93;;;2.10;;
75465;SDS011;64049;46.290;44.240;2023-05-13T14:04:08;8.70;;;2.97;;
75465;SDS011;64049;46.290;44.240;2023-05-13T14:06:35;6.57;;;2.42;;
75465;SDS011;64049;46.290;44.240;2023-05-13T14:09:01;4.72;;;2.58;;
75465;SDS011;64049;46.290;44.240;2023-05-13T14:11:28;5.85;;;2.38;;
75465;SDS011;64049;46.290;44.240;2023-05-13T14:13:53;7.70;;;3.80;;
75465;SDS011;64049;46.290;44.240;2023-05-13T14:16:19;11.35;;;5.10;;
75465;SDS011;64049;46.290;44.240;2023-05-13T14:18:45;8.68;;;3.70;;
75465;SDS011;64049;46.290;44.240;2023-05-13T14:21:11;8.82;;;4.05;;
75465;SDS011;64049;46.290;44.240;2023-05-13T14:23:37;10.30;;;3.30;;
75465;SDS011;64049;46.290;44.240;2023-05-13T14:26:06;6.53;;;3.30;;
75465;SDS011;64049;46.290;44.240;2023-05-13T14:28:33;9.35;;;2.67;;
75465;SDS011;64049;46.290;44.240;2023-05-13T14:30:59;6.15;;;2.40;;
75465;SDS011;64049;46.290;44.240;2023-05-13T14:33:25;5.97;;;2.50;;
75465;SDS011;64049;46.290;44.240;2023-05-13T14:35:51;7.88;;;3.05;;
75465;SDS011;64049;46.290;44.240;2023-05-13T14:38:17;9.00;;;2.85;;
75465;SDS011;64049;46.290;44.240;2023-05-13T14:40:43;7.38;;;2.90;;
75465;SDS011;64049;46.290;44.240;2023-05-13T14:43:13;13.98;;;5.30;;
75465;SDS011;64049;46.290;44.240;2023-05-13T14:45:39;16.05;;;8.73;;
75465;SDS011;64049;46.290;44.240;2023-05-13T14:48:05;25.85;;;7.18;;
75465;SDS011;64049;46.290;44.240;2023-05-13T14:50:31;7.50;;;3.38;;
75465;SDS011;64049;46.290;44.240;2023-05-13T14:52:57;7.22;;;3.40;;
75465;SDS011;64049;46.290;44.240;2023-05-13T14:55:23;6.50;;;2.40;;
75465;SDS011;64049;46.290;44.240;2023-05-13T14:57:49;9.50;;;2.83;;
75465;SDS011;64049;46.290;44.240;2023-05-13T15:00:15;7.10;;;3.53;;
75465;SDS011;64049;46.290;44.240;2023-05-13T15:02:41;14.75;;;7.13;;
75465;SDS011;64049;46.290;44.240;2023-05-13T15:05:07;12.30;;;4.95;;
75465;SDS011;64049;46.290;44.240;2023-05-13T15:07:33;8.57;;;3.15;;
75465;SDS011;64049;46.290;44.240;2023-05-13T15:09:59;8.07;;;2.50;;
75465;SDS011;64049;46.290;44.240;2023-05-13T15:12:25;6.47;;;2.40;;
75465;SDS011;64049;46.290;44.240;2023-05-13T15:14:51;7.47;;;2.42;;
75465;SDS011;64049;46.290;44.240;2023-05-13T15:17:18;8.80;;;2.65;;
75465;SDS011;64049;46.290;44.240;2023-05-13T15:19:44;7.15;;;2.88;;
75465;SDS011;64049;46.290;44.240;2023-05-13T15:22:10;6.50;;;2.35;;
75465;SDS011;64049;46.290;44.240;2023-05-13T15:24:36;7.07;;;2.50;;
75465;SDS011;64049;46.290;44.240;2023-05-13T15:27:03;6.68;;;2.72;;
75465;SDS011;64049;46.290;44.240;2023-05-13T15:29:30;5.75;;;2.63;;
75465;SDS011;64049;46.290;44.240;2023-05-13T15:31:57;6.45;;;2.63;;
75465;SDS011;64049;46.290;44.240;2023-05-13T15:34:23;6.35;;;2.70;;
75465;SDS011;64049;46.290;44.240;2023-05-13T15:36:49;9.68;;;2.72;;
75465;SDS011;64049;46.290;44.240;2023-05-13T15:39:15;9.32;;;3.47;;
75465;SDS011;64049;46.290;44.240;2023-05-13T15:41:41;11.35;;;3.17;;
75465;SDS011;64049;46.290;44.240;2023-05-13T15:44:07;7.00;;;3.10;;
75465;SDS011;64049;46.290;44.240;2023-05-13T15:46:33;7.50;;;2.70;;
75465;SDS011;64049;46.290;44.240;2023-05-13T15:48:59;8.77;;;2.45;;
75465;SDS011;64049;46.290;44.240;2023-05-13T15:51:27;7.53;;;2.95;;
75465;SDS011;64049;46.290;44.240;2023-05-13T15:53:52;7.55;;;2.92;;
75465;SDS011;64049;46.290;44.240;2023-05-13T15:56:19;14.80;;;2.95;;
75465;SDS011;64049;46.290;44.240;2023-05-13T15:58:50;8.25;;;3.17;;
75465;SDS011;64049;46.290;44.240;2023-05-13T16:01:17;8.90;;;3.25;;
75465;SDS011;64049;46.290;44.240;2023-05-13T16:03:45;7.72;;;3.35;;
75465;SDS011;64049;46.290;44.240;2023-05-13T16:06:10;8.30;;;3.50;;
75465;SDS011;64049;46.290;44.240;2023-05-13T16:08:36;15.55;;;4.03;;
75465;SDS011;64049;46.290;44.240;2023-05-13T16:11:02;12.50;;;3.50;;